Time;durP1;ratioP1;P1;durP2;ratioP2;P2;SDS_P1;SDS_P2;PMS_P1;PMS_P2;Temp;Humidity;BMP_temperature;BMP_pressure;BME280_temperature;BME280_humidity;BME280_pressure;Samples;Min_cycle;Max_cycle;Signal;HPM_P1;HPM_P2
2022/09/22 00:01:01;;;;;;;22.50;14.77;;;;;;;7.99;100.00;102327.78;5157472;27;20458;-83
2022/09/22 00:03:42;;;;;;;24.38;15.10;;;;;;;7.96;100.00;102322.72;5138818;27;20474;-84
2022/09/22 00:06:27;;;;;;;26.13;15.73;;;;;;;7.92;100.00;102321.34;5138355;27;20114;-84
2022/09/22 00:08:57;;;;;;;21.45;14.68;;;;;;;7.87;100.00;102311.00;5137803;27;20030;-84
2022/09/22 00:11:28;;;;;;;19.50;13.97;;;;;;;7.86;100.00;102311.19;5157028;27;20026;-84
2022/09/22 00:14:09;;;;;;;22.10;14.18;;;;;;;7.84;100.00;102305.94;5156648;27;20031;-84
2022/09/22 00:16:38;;;;;;;18.77;14.57;;;;;;;7.84;100.00;102314.03;5138426;27;20026;-84
2022/09/22 00:19:05;;;;;;;21.15;14.25;;;;;;;7.83;100.00;102311.50;5138616;27;20030;-84
2022/09/22 00:21:31;;;;;;;24.13;14.82;;;;;;;7.79;100.00;102315.53;5104323;27;20474;-84
2022/09/22 00:23:56;;;;;;;22.80;14.27;;;;;;;7.76;100.00;102313.97;5120817;27;20031;-84
2022/09/22 00:26:23;;;;;;;22.05;15.02;;;;;;;7.73;100.00;102306.19;5138314;27;20035;-84
2022/09/22 00:28:50;;;;;;;20.95;14.68;;;;;;;7.72;100.00;102309.91;5138356;27;20026;-84
2022/09/22 00:31:21;;;;;;;23.43;15.23;;;;;;;7.69;100.00;102307.53;5156425;27;20035;-84
2022/09/22 00:33:47;;;;;;;20.67;15.43;;;;;;;7.65;100.00;102308.88;5138059;27;20497;-84
2022/09/22 00:36:14;;;;;;;18.92;14.68;;;;;;;7.64;100.00;102307.19;5137849;27;20061;-84
2022/09/22 00:38:40;;;;;;;24.07;15.30;;;;;;;7.63;100.00;102310.88;5137526;27;20026;-84
2022/09/22 00:41:09;;;;;;;27.80;15.88;;;;;;;7.59;100.00;102312.19;5156160;27;20113;-84
2022/09/22 00:43:36;;;;;;;22.55;15.35;;;;;;;7.58;100.00;102310.53;5156106;27;20052;-84
2022/09/22 00:46:08;;;;;;;22.85;16.25;;;;;;;7.54;100.00;102304.56;5133935;27;20445;-84
2022/09/22 00:48:38;;;;;;;23.38;16.02;;;;;;;7.53;100.00;102301.03;5134509;27;20065;-84
2022/09/22 00:51:07;;;;;;;22.77;15.67;;;;;;;7.52;100.00;102307.44;5135230;27;20030;-84
2022/09/22 00:53:34;;;;;;;23.27;15.15;;;;;;;7.50;100.00;102306.75;5135236;27;20083;-84
2022/09/22 00:56:09;;;;;;;23.60;16.15;;;;;;;7.51;100.00;102307.59;5133822;27;20543;-83
2022/09/22 00:58:40;;;;;;;24.42;15.98;;;;;;;7.50;100.00;102306.75;5135518;27;20031;-84
2022/09/22 01:01:07;;;;;;;23.70;15.75;;;;;;;7.47;100.00;102304.38;5134389;27;20064;-84
2022/09/22 01:03:33;;;;;;;25.07;17.10;;;;;;;7.45;100.00;102294.75;5135362;27;20050;-84
2022/09/22 01:06:02;;;;;;;25.92;16.70;;;;;;;7.43;100.00;102297.59;5133655;27;20031;-84
2022/09/22 01:08:34;;;;;;;23.85;16.05;;;;;;;7.41;100.00;102293.34;5134013;27;20031;-84
2022/09/22 01:11:00;;;;;;;23.70;16.05;;;;;;;7.36;100.00;102286.56;5133838;27;20023;-84
2022/09/22 01:13:45;;;;;;;24.43;16.63;;;;;;;7.36;100.00;102280.34;5133813;27;20030;-84
2022/09/22 01:16:53;;;;;;;23.50;16.23;;;;;;;7.33;100.00;102280.66;5135215;27;20265;-84
2022/09/22 01:19:43;;;;;;;23.95;16.48;;;;;;;7.31;100.00;102286.22;5122471;27;20041;-84
2022/09/22 01:22:39;;;;;;;22.25;16.25;;;;;;;7.30;100.00;102278.28;5133692;27;20466;-84
2022/09/22 01:25:13;;;;;;;23.77;16.08;;;;;;;7.30;100.00;102278.28;5135035;27;20031;-84
2022/09/22 01:28:00;;;;;;;21.42;16.52;;;;;;;7.29;100.00;102276.56;5133303;27;20443;-84
2022/09/22 01:30:51;;;;;;;24.05;17.33;;;;;;;7.25;100.00;102267.97;5135255;27;20027;-84
2022/09/22 01:33:55;;;;;;;24.30;17.38;;;;;;;7.24;100.00;102271.66;5133955;27;20084;-84
2022/09/22 01:36:28;;;;;;;25.70;16.88;;;;;;;7.21;100.00;102271.97;5115469;27;20038;-84
2022/09/22 01:39:36;;;;;;;25.38;17.27;;;;;;;7.18;100.00;102270.44;5133777;27;20459;-84
2022/09/22 01:42:20;;;;;;;26.17;18.25;;;;;;;7.16;100.00;102275.16;5071409;28;20103;-84
2022/09/22 01:44:58;;;;;;;29.58;19.00;;;;;;;7.14;100.00;102265.50;5130369;28;20435;-84
2022/09/22 01:47:35;;;;;;;28.80;18.17;;;;;;;7.11;100.00;102261.25;5155092;27;20049;-84
2022/09/22 01:50:09;;;;;;;27.05;18.38;;;;;;;7.10;100.00;102261.41;5136823;27;20022;-84
2022/09/22 01:52:39;;;;;;;23.13;16.80;;;;;;;7.09;100.00;102257.88;5137094;27;20035;-84
2022/09/22 01:55:10;;;;;;;23.55;17.50;;;;;;;7.10;100.00;102253.31;5155326;27;20102;-84
2022/09/22 01:57:52;;;;;;;24.47;17.00;;;;;;;7.08;100.00;102252.66;5137133;27;20018;-84
2022/09/22 02:00:18;;;;;;;26.63;17.10;;;;;;;7.06;100.00;102251.94;5155085;27;20057;-84
2022/09/22 02:02:52;;;;;;;27.83;18.30;;;;;;;7.06;100.00;102250.09;5121253;27;20474;-84
2022/09/22 02:05:24;;;;;;;26.35;17.10;;;;;;;7.06;100.00;102246.53;5159864;27;20105;-84
2022/09/22 02:07:53;;;;;;;21.53;16.87;;;;;;;7.02;100.00;102252.25;5159437;27;20462;-84
2022/09/22 02:10:23;;;;;;;23.90;17.42;;;;;;;7.01;100.00;102244.31;5159089;27;20035;-84
2022/09/22 02:12:49;;;;;;;21.83;16.65;;;;;;;7.00;100.00;102246.19;5141684;27;20022;-84
2022/09/22 02:18:11;;;;;;;22.08;16.73;;;;;;;6.98;100.00;102239.25;5144242;27;20065;-84
2022/09/22 02:20:37;;;;;;;25.20;17.67;;;;;;;6.98;100.00;102241.94;5140442;27;20034;-84
2022/09/22 02:23:03;;;;;;;24.02;17.30;;;;;;;6.96;100.00;102234.00;5140625;27;20382;-84
2022/09/22 02:25:29;;;;;;;24.33;18.23;;;;;;;6.93;100.00;102231.63;5140521;27;20031;-84
2022/09/22 02:27:56;;;;;;;27.42;18.90;;;;;;;6.92;100.00;102229.09;5140415;27;20030;-84
2022/09/22 02:30:22;;;;;;;30.50;18.95;;;;;;;6.89;100.00;102222.13;5140623;27;20062;-84
2022/09/22 02:32:51;;;;;;;22.98;17.75;;;;;;;6.88;100.00;102228.56;5140112;27;20030;-84
2022/09/22 02:35:17;;;;;;;32.80;18.52;;;;;;;6.87;100.00;102226.84;5140018;27;20030;-84
2022/09/22 02:38:03;;;;;;;27.67;18.57;;;;;;;6.84;100.00;102221.78;5159160;27;20038;-84
2022/09/22 02:40:29;;;;;;;28.45;18.52;;;;;;;6.84;100.00;102232.56;5139824;27;20030;-84
2022/09/22 02:43:09;;;;;;;25.63;18.23;;;;;;;6.80;100.00;102225.78;5140729;27;20034;-84
2022/09/22 02:45:58;;;;;;;25.83;16.92;;;;;;;6.76;100.00;102222.56;5140148;27;20284;-84
2022/09/22 02:48:28;;;;;;;26.08;17.67;;;;;;;6.73;100.00;102216.63;5140903;27;20030;-83
2022/09/22 02:50:54;;;;;;;25.70;17.35;;;;;;;6.72;100.00;102206.81;5139976;27;20078;-84
2022/09/22 02:53:19;;;;;;;27.52;17.70;;;;;;;6.70;100.00;102215.09;5158862;27;20031;-84
2022/09/22 02:55:46;;;;;;;26.33;17.02;;;;;;;6.67;100.00;102215.41;5139970;27;20086;-84
2022/09/22 02:58:15;;;;;;;27.33;18.23;;;;;;;6.65;100.00;102215.56;5122521;27;20058;-84
2022/09/22 03:00:41;;;;;;;28.40;19.20;;;;;;;6.62;100.00;102215.03;5158158;27;20030;-84
2022/09/22 03:03:09;;;;;;;25.38;17.73;;;;;;;6.58;100.00;102203.69;5158366;27;20023;-84
2022/09/22 03:05:34;;;;;;;28.38;19.27;;;;;;;6.57;100.00;102203.84;5139844;27;20033;-84
2022/09/22 03:08:03;;;;;;;25.37;18.50;;;;;;;6.60;100.00;102204.41;5139723;27;20031;-84
2022/09/22 03:10:28;;;;;;;26.85;18.55;;;;;;;6.56;100.00;102202.19;5140110;27;20179;-84
2022/09/22 03:12:56;;;;;;;23.23;17.57;;;;;;;6.56;100.00;102211.09;5122421;27;20121;-84
2022/09/22 03:15:22;;;;;;;29.10;18.50;;;;;;;6.50;100.00;102200.94;5138426;27;20026;-84
2022/09/22 03:17:48;;;;;;;24.88;17.77;;;;;;;6.46;100.00;102196.84;5139819;27;20091;-84
2022/09/22 03:20:14;;;;;;;27.07;17.40;;;;;;;6.45;100.00;102206.81;5122540;27;20403;-84
2022/09/22 03:22:40;;;;;;;28.60;18.77;;;;;;;6.45;100.00;102203.25;5122289;27;20473;-84
2022/09/22 03:25:07;;;;;;;26.70;18.58;;;;;;;6.45;100.00;102198.72;5139287;27;20038;-84
2022/09/22 03:27:32;;;;;;;26.35;18.52;;;;;;;6.44;100.00;102198.88;5157843;27;20026;-84
2022/09/22 03:29:58;;;;;;;25.40;18.07;;;;;;;6.43;100.00;102195.31;5157550;27;20038;-84
2022/09/22 03:32:23;;;;;;;25.27;18.57;;;;;;;6.42;100.00;102192.75;5139264;27;20029;-84
2022/09/22 03:34:49;;;;;;;27.98;19.88;;;;;;;6.41;100.00;102188.41;5138882;27;20029;-84
2022/09/22 03:37:15;;;;;;;24.13;18.47;;;;;;;6.40;100.00;102187.53;5122071;27;20038;-84
2022/09/22 03:39:41;;;;;;;24.52;18.35;;;;;;;6.39;100.00;102193.94;5138962;27;20062;-84
2022/09/22 03:42:07;;;;;;;28.60;18.67;;;;;;;6.39;100.00;102185.00;5138687;27;20061;-84
2022/09/22 03:44:33;;;;;;;31.13;18.80;;;;;;;6.40;100.00;102192.09;5157253;27;20063;-84
2022/09/22 03:46:59;;;;;;;25.77;18.37;;;;;;;6.38;100.00;102192.25;5138911;27;20051;-84
2022/09/22 03:49:24;;;;;;;27.38;19.15;;;;;;;6.35;100.00;102194.38;5122552;27;20447;-84
2022/09/22 03:51:50;;;;;;;30.63;19.35;;;;;;;6.31;100.00;102185.78;5138917;27;20126;-84
2022/09/22 03:54:15;;;;;;;25.80;18.37;;;;;;;6.29;100.00;102185.94;5138731;27;20454;-84
2022/09/22 03:56:41;;;;;;;29.50;19.47;;;;;;;6.27;100.00;102187.91;5138613;27;20030;-84
2022/09/22 03:59:07;;;;;;;25.80;19.42;;;;;;;6.24;100.00;102198.16;5138436;27;20182;-84
2022/09/22 04:01:32;;;;;;;27.97;19.23;;;;;;;6.20;100.00;102184.16;5138682;27;20034;-84
2022/09/22 04:03:58;;;;;;;24.90;18.77;;;;;;;6.18;100.00;102182.63;5156958;27;20071;-84
2022/09/22 04:06:24;;;;;;;28.13;19.57;;;;;;;6.17;100.00;102178.22;5138603;27;20022;-84
2022/09/22 04:08:50;;;;;;;30.67;20.02;;;;;;;6.14;100.00;102184.75;5138570;27;20336;-84
2022/09/22 04:11:15;;;;;;;29.03;19.57;;;;;;;6.15;100.00;102179.22;5104473;27;20042;-84
2022/09/22 04:13:40;;;;;;;28.23;19.37;;;;;;;6.11;100.00;102183.22;5121204;27;20035;-84
2022/09/22 04:16:06;;;;;;;26.88;19.30;;;;;;;6.10;100.00;102178.00;5121529;27;20030;-84
2022/09/22 04:18:32;;;;;;;31.20;20.33;;;;;;;6.06;100.00;102176.59;5121175;27;20033;-84
2022/09/22 04:20:57;;;;;;;28.33;19.53;;;;;;;6.06;100.00;102172.06;5137990;27;20035;-84
2022/09/22 04:23:25;;;;;;;29.45;20.02;;;;;;;6.05;100.00;102174.91;5138219;27;20022;-84
2022/09/22 04:25:51;;;;;;;29.20;19.55;;;;;;;6.04;100.00;102170.50;5120915;27;20115;-84
2022/09/22 04:28:16;;;;;;;31.67;19.55;;;;;;;6.02;100.00;102173.34;5137769;27;20478;-84
2022/09/22 04:30:43;;;;;;;27.52;20.38;;;;;;;6.03;100.00;102172.38;5121691;27;20042;-84
2022/09/22 04:33:09;;;;;;;29.13;19.45;;;;;;;6.00;100.00;102172.66;5137748;27;20034;-84
2022/09/22 04:35:35;;;;;;;26.45;19.27;;;;;;;6.00;100.00;102177.22;5138092;27;20026;-84
2022/09/22 04:38:00;;;;;;;28.47;19.20;;;;;;;5.99;100.00;102176.34;5120773;27;20141;-84
2022/09/22 04:40:26;;;;;;;27.03;19.80;;;;;;;6.00;100.00;102174.53;5121014;27;20133;-84
2022/09/22 04:42:51;;;;;;;28.87;19.17;;;;;;;5.96;100.00;102177.50;5121126;27;20031;-84
2022/09/22 04:45:23;;;;;;;27.63;18.95;;;;;;;5.93;100.00;102179.63;5120556;27;20037;-84
2022/09/22 04:47:50;;;;;;;26.67;19.48;;;;;;;5.89;100.00;102171.03;5137975;27;20134;-84
2022/09/22 04:50:18;;;;;;;29.30;19.92;;;;;;;5.90;100.00;102177.25;5156248;27;20058;-84
2022/09/22 04:52:45;;;;;;;31.58;19.92;;;;;;;5.87;100.00;102174.84;5138067;27;20041;-84
2022/09/22 04:55:11;;;;;;;28.90;20.10;;;;;;;5.82;100.00;102174.44;5120429;27;20030;-84
2022/09/22 04:57:36;;;;;;;25.33;18.00;;;;;;;5.75;100.00;102172.38;5137308;27;20099;-84
2022/09/22 05:00:05;;;;;;;23.47;17.47;;;;;;;5.73;100.00;102170.84;5137772;27;20059;-84
2022/09/22 05:02:30;;;;;;;26.92;18.20;;;;;;;5.69;100.00;102169.44;5137374;27;20482;-84
2022/09/22 05:04:56;;;;;;;27.10;18.60;;;;;;;5.61;100.00;102171.03;5120864;27;20042;-84
2022/09/22 05:07:24;;;;;;;29.17;19.33;;;;;;;5.60;100.00;102180.09;5137038;27;20022;-84
2022/09/22 05:09:49;;;;;;;28.48;18.90;;;;;;;5.59;100.00;102177.56;5137922;27;20035;-84
2022/09/22 05:12:14;;;;;;;34.27;19.53;;;;;;;5.60;100.00;102181.97;5136970;27;20030;-84
2022/09/22 05:14:41;;;;;;;26.95;19.10;;;;;;;5.60;100.00;102181.97;5120482;27;20037;-84
2022/09/22 05:17:06;;;;;;;28.42;19.23;;;;;;;5.60;100.00;102176.56;5120132;27;20070;-84
2022/09/22 05:19:32;;;;;;;26.40;18.90;;;;;;;5.58;100.00;102179.41;5137133;27;20115;-84
2022/09/22 05:21:57;;;;;;;28.37;19.07;;;;;;;5.56;100.00;102186.78;5137025;27;20031;-84
2022/09/22 05:24:22;;;;;;;23.97;18.13;;;;;;;5.54;100.00;102175.31;5137022;27;20029;-84
2022/09/22 05:26:48;;;;;;;25.77;17.93;;;;;;;5.54;100.00;102174.50;5136975;27;20031;-83
2022/09/22 05:29:17;;;;;;;30.33;19.33;;;;;;;5.56;100.00;102183.25;5136987;27;20025;-84
2022/09/22 05:31:42;;;;;;;31.00;18.13;;;;;;;5.55;100.00;102181.53;5137576;27;20834;-84
2022/09/22 05:34:08;;;;;;;27.08;18.70;;;;;;;5.58;100.00;102186.63;5137116;27;20114;-83
2022/09/22 05:36:33;;;;;;;30.17;18.73;;;;;;;5.55;100.00;102182.41;5119242;27;20432;-84
2022/09/22 05:38:59;;;;;;;28.03;18.70;;;;;;;5.55;100.00;102190.50;5136637;27;20094;-85
2022/09/22 05:41:24;;;;;;;28.13;19.47;;;;;;;5.54;100.00;102183.41;5136998;27;20034;-84
2022/09/22 05:43:49;;;;;;;28.08;19.10;;;;;;;5.51;100.00;102188.25;5120089;27;20287;-85
2022/09/22 05:46:15;;;;;;;29.20;18.90;;;;;;;5.52;100.00;102190.78;5119577;27;20451;-84
2022/09/22 05:48:40;;;;;;;25.67;19.73;;;;;;;5.50;100.00;102192.78;5136896;27;20023;-84
2022/09/22 05:51:05;;;;;;;27.73;19.67;;;;;;;5.53;100.00;102192.47;5119692;27;20128;-84
2022/09/22 05:53:31;;;;;;;31.67;20.03;;;;;;;5.59;100.00;102188.34;5136617;27;20046;-84
2022/09/22 05:55:58;;;;;;;31.80;19.58;;;;;;;5.62;100.00;102186.22;5102182;27;20065;-84
2022/09/22 05:58:27;;;;;;;30.23;19.80;;;;;;;5.70;100.00;102195.34;5136887;27;20039;-83
2022/09/22 06:00:55;;;;;;;30.77;20.27;;;;;;;5.75;100.00;102188.53;5119867;27;20382;-84
2022/09/22 06:03:21;;;;;;;32.83;20.67;;;;;;;5.81;100.00;102187.06;5136856;27;20034;-84
2022/09/22 06:05:46;;;;;;;35.50;20.73;;;;;;;5.85;100.00;102185.78;5136085;27;20031;-84
2022/09/22 06:08:14;;;;;;;32.30;20.17;;;;;;;5.90;100.00;102190.72;5136958;27;20026;-84
2022/09/22 06:10:39;;;;;;;31.63;20.42;;;;;;;5.97;100.00;102195.38;5136500;27;20027;-83
2022/09/22 06:13:07;;;;;;;33.45;21.70;;;;;;;6.02;100.00;102196.75;5154815;27;20497;-84
2022/09/22 06:15:34;;;;;;;35.50;22.40;;;;;;;6.08;100.00;102204.22;5118863;27;20035;-84
2022/09/22 06:18:05;;;;;;;35.75;21.35;;;;;;;6.15;100.00;102191.84;5136269;27;20110;-84
2022/09/22 06:20:32;;;;;;;28.77;18.80;;;;;;;6.25;100.00;102197.19;5136150;27;20067;-84
2022/09/22 06:22:58;;;;;;;28.67;19.38;;;;;;;6.32;100.00;102199.09;5136030;27;20058;-84
2022/09/22 06:25:26;;;;;;;32.85;20.00;;;;;;;6.40;100.00;102192.91;5118854;27;20042;-84
2022/09/22 06:28:06;;;;;;;29.63;18.73;;;;;;;6.49;100.00;102185.75;5154218;27;20382;-84
2022/09/22 06:30:33;;;;;;;27.23;19.50;;;;;;;6.57;100.00;102191.22;5136320;27;20126;-84
2022/09/22 06:32:58;;;;;;;32.58;19.83;;;;;;;6.68;100.00;102196.34;5136105;27;20063;-83
2022/09/22 06:35:36;;;;;;;30.60;19.33;;;;;;;6.76;100.00;102190.19;5118999;27;20079;-84
2022/09/22 06:38:05;;;;;;;25.55;19.27;;;;;;;6.86;100.00;102187.38;5136084;27;20121;-83
2022/09/22 06:40:32;;;;;;;32.33;20.13;;;;;;;6.95;100.00;102189.16;5136108;27;20029;-84
2022/09/22 06:43:01;;;;;;;32.70;19.73;;;;;;;7.05;100.00;102190.91;5101910;27;20031;-84
2022/09/22 06:45:28;;;;;;;31.30;19.77;;;;;;;7.12;100.00;102192.78;5135398;27;20375;-84
2022/09/22 06:47:57;;;;;;;34.63;21.20;;;;;;;7.20;100.00;102197.38;5136410;27;20108;-83
2022/09/22 06:50:23;;;;;;;29.58;20.27;;;;;;;7.28;100.00;102189.34;5122902;27;20041;-84
2022/09/22 06:52:50;;;;;;;31.58;20.40;;;;;;;7.37;100.00;102199.16;5122156;27;20034;-84
2022/09/22 06:55:18;;;;;;;33.85;19.83;;;;;;;7.45;100.00;102192.13;5122677;27;20382;-83
2022/09/22 06:57:44;;;;;;;31.53;19.80;;;;;;;7.52;100.00;102199.41;5139635;27;20049;-84
2022/09/22 07:00:10;;;;;;;30.15;19.98;;;;;;;7.61;100.00;102189.47;5139910;27;20458;-84
2022/09/22 07:02:35;;;;;;;30.73;20.63;;;;;;;7.69;100.00;102192.22;5139528;27;20535;-84
2022/09/22 07:05:01;;;;;;;34.63;20.10;;;;;;;7.75;100.00;102185.31;5139602;27;20055;-84
2022/09/22 07:07:28;;;;;;;37.33;19.50;;;;;;;7.83;100.00;102193.44;5139318;27;20033;-84
2022/09/22 07:09:54;;;;;;;28.17;20.08;;;;;;;7.92;100.00;102183.50;5139897;27;20042;-84
2022/09/22 07:12:21;;;;;;;26.00;18.80;;;;;;;8.00;100.00;102179.97;5139789;27;20029;-84
2022/09/22 07:14:51;;;;;;;30.30;19.37;;;;;;;8.10;100.00;102182.53;5140201;27;20027;-84
2022/09/22 07:17:19;;;;;;;31.98;19.05;;;;;;;8.17;100.00;102187.09;5139060;27;20486;-84
2022/09/22 07:19:46;;;;;;;31.25;19.63;;;;;;;8.25;100.00;102181.72;5158041;27;20066;-84
2022/09/22 07:22:14;;;;;;;28.40;19.10;;;;;;;8.35;100.00;102181.53;5122028;27;20474;-84
2022/09/22 07:24:41;;;;;;;34.13;19.60;;;;;;;8.46;100.00;102180.41;5158111;27;20031;-84
2022/09/22 07:27:07;;;;;;;29.60;18.03;;;;;;;8.55;100.00;102176.69;5139261;27;20031;-84
2022/09/22 07:29:32;;;;;;;24.52;18.08;;;;;;;8.63;100.00;102175.81;5157796;27;20090;-84
2022/09/22 07:31:58;;;;;;;23.23;16.80;;;;;;;8.69;100.00;102166.19;5139393;27;20526;-84
2022/09/22 07:34:23;;;;;;;26.58;16.92;;;;;;;8.77;100.00;102166.19;5139358;27;20386;-83
2022/09/22 07:36:49;;;;;;;23.10;15.93;;;;;;;8.88;100.00;102170.41;5157352;27;20031;-84
2022/09/22 07:39:14;;;;;;;23.52;14.95;;;;;;;8.97;100.00;102176.63;5157410;27;20018;-84
2022/09/22 07:41:41;;;;;;;22.27;15.30;;;;;;;9.08;100.00;102174.41;5139023;27;20100;-84
2022/09/22 07:46:55;;;;;;;18.88;14.07;;;;;;;9.29;100.00;102173.00;5142092;27;20513;-84
2022/09/22 07:49:21;;;;;;;20.37;13.90;;;;;;;9.39;100.00;102172.78;5138636;27;20027;-84
2022/09/22 07:51:53;;;;;;;21.93;13.23;;;;;;;9.47;99.72;102176.31;5157357;27;20458;-84
2022/09/22 07:54:19;;;;;;;22.48;13.48;;;;;;;9.57;100.00;102170.69;5139411;27;20035;-84
2022/09/22 07:56:45;;;;;;;23.52;12.85;;;;;;;9.65;99.62;102173.38;5121577;27;20031;-84
2022/09/22 07:59:12;;;;;;;19.87;11.60;;;;;;;9.73;97.49;102174.31;5138457;27;20026;-84
2022/09/22 08:01:46;;;;;;;17.73;12.20;;;;;;;9.82;98.20;102171.41;5138050;27;20033;-84
2022/09/22 08:04:17;;;;;;;15.73;11.47;;;;;;;9.98;97.34;102167.75;5138782;27;20027;-84
2022/09/22 08:06:44;;;;;;;14.52;10.70;;;;;;;10.17;95.40;102162.88;5157489;27;20026;-84
2022/09/22 08:09:12;;;;;;;14.65;10.23;;;;;;;10.30;94.24;102162.28;5138144;27;20023;-85
2022/09/22 08:11:38;;;;;;;16.60;9.48;;;;;;;10.42;92.95;102165.44;5138384;27;20125;-84
2022/09/22 08:14:11;;;;;;;18.60;11.02;;;;;;;10.47;93.42;102163.88;5121015;27;20406;-84
2022/09/22 08:16:38;;;;;;;14.93;10.17;;;;;;;10.57;92.98;102158.19;5138987;27;20113;-84
2022/09/22 08:19:11;;;;;;;15.00;9.18;;;;;;;10.65;90.40;102157.28;5138219;27;20033;-84
2022/09/22 08:21:38;;;;;;;15.45;10.13;;;;;;;10.74;92.10;102158.88;5139010;27;20046;-84
2022/09/22 08:24:08;;;;;;;13.85;9.60;;;;;;;10.79;90.99;102161.03;5137879;27;20493;-84
2022/09/22 08:26:37;;;;;;;15.13;10.55;;;;;;;10.89;91.75;102156.19;5138332;27;20121;-84
2022/09/22 08:29:04;;;;;;;12.60;9.97;;;;;;;10.95;91.31;102154.59;5156597;27;20062;-84
2022/09/22 08:31:31;;;;;;;19.90;10.02;;;;;;;11.04;90.92;102151.63;5137772;27;20040;-84
2022/09/22 08:33:57;;;;;;;13.38;9.23;;;;;;;11.15;89.50;102152.19;5137874;27;20023;-84
2022/09/22 08:36:24;;;;;;;13.00;9.30;;;;;;;11.23;88.30;102144.78;5138193;27;20038;-84
2022/09/22 08:38:50;;;;;;;15.03;9.27;;;;;;;11.35;88.76;102147.00;5156445;27;20275;-84
2022/09/22 08:41:46;;;;;;;13.55;9.02;;;;;;;11.44;89.03;102148.59;5137650;27;20439;-84
2022/09/22 08:44:18;;;;;;;21.00;8.82;;;;;;;11.55;86.92;102150.00;5137734;27;20470;-84
2022/09/22 08:46:46;;;;;;;12.90;8.30;;;;;;;11.63;86.27;102151.75;5155802;27;20074;-84
2022/09/22 08:52:15;;;;;;;15.88;7.90;;;;;;;11.86;85.80;102149.72;5156810;27;20497;-84
2022/09/22 08:54:41;;;;;;;11.57;8.02;;;;;;;11.95;85.71;102152.38;5137843;27;20045;-84
2022/09/22 08:57:29;;;;;;;11.15;7.55;;;;;;;12.09;84.71;102151.44;5137154;27;20489;-84
2022/09/22 09:00:13;;;;;;;13.15;6.35;;;;;;;12.24;82.68;102149.53;5155940;27;20031;-84
2022/09/22 09:02:40;;;;;;;9.53;6.10;;;;;;;12.37;80.91;102150.66;5138228;27;20031;-84
2022/09/22 09:05:39;;;;;;;8.52;5.80;;;;;;;12.43;80.99;102155.31;5137328;27;20027;-84
2022/09/22 09:08:41;;;;;;;9.63;5.50;;;;;;;12.57;79.68;102148.13;5155842;27;20026;-84
2022/09/22 09:11:34;;;;;;;6.18;4.57;;;;;;;12.72;77.76;102150.75;5137017;27;20075;-85
2022/09/22 09:14:32;;;;;;;10.85;4.40;;;;;;;12.86;77.88;102165.31;5137687;27;20091;-84
2022/09/22 09:17:03;;;;;;;8.27;3.53;;;;;;;13.01;73.92;102155.16;5104023;27;20103;-83
2022/09/22 09:19:41;;;;;;;8.35;3.55;;;;;;;13.21;73.11;102160.72;5137726;27;20034;-85
2022/09/22 09:22:34;;;;;;;8.60;3.83;;;;;;;13.29;73.59;102155.09;5137496;27;20121;-84
2022/09/22 09:25:09;;;;;;;5.93;3.67;;;;;;;13.42;70.04;102151.66;5128689;27;20031;-84
2022/09/22 09:27:40;;;;;;;6.93;4.28;;;;;;;13.55;70.88;102144.56;5137220;27;20058;-84
2022/09/22 09:30:06;;;;;;;4.20;3.00;;;;;;;13.67;68.86;102151.97;5137272;27;20037;-84
2022/09/22 09:32:44;;;;;;;6.10;3.38;;;;;;;13.79;68.63;102148.63;5136821;27;20018;-84
2022/09/22 09:35:15;;;;;;;9.00;3.55;;;;;;;13.90;69.53;102142.56;5137184;27;20367;-84
2022/09/22 09:37:44;;;;;;;4.43;3.50;;;;;;;14.05;69.48;102139.66;5136451;27;20031;-84
2022/09/22 09:40:14;;;;;;;5.57;4.03;;;;;;;14.15;66.62;102142.84;5136778;27;20031;-84
2022/09/22 09:42:41;;;;;;;8.03;4.00;;;;;;;14.28;67.23;102141.19;5137630;27;20042;-84
2022/09/22 09:45:13;;;;;;;4.60;3.50;;;;;;;14.36;64.04;102144.56;5137133;27;20026;-84
2022/09/22 09:47:51;;;;;;;6.95;3.30;;;;;;;14.47;64.53;102144.97;5137435;27;20069;-84
2022/09/22 09:50:18;;;;;;;6.00;3.60;;;;;;;14.61;65.77;102138.47;5155317;27;20110;-84
2022/09/22 09:52:44;;;;;;;5.85;3.90;;;;;;;14.75;64.70;102144.78;5136459;27;20031;-84
2022/09/22 09:55:24;;;;;;;4.30;3.37;;;;;;;14.85;62.99;102141.59;5136554;27;20114;-84
2022/09/22 10:00:59;;;;;;;9.25;3.45;;;;;;;15.14;61.33;102136.72;5102329;27;20037;-85
2022/09/22 10:03:31;;;;;;;5.07;3.70;;;;;;;15.27;60.98;102131.22;5155340;27;20035;-84
2022/09/22 10:06:06;;;;;;;5.22;3.63;;;;;;;15.34;61.35;102132.03;5137472;27;20023;-84
2022/09/22 10:08:43;;;;;;;4.05;3.05;;;;;;;15.46;61.20;102125.88;5136709;27;20055;-84
2022/09/22 10:11:10;;;;;;;5.28;3.15;;;;;;;15.61;59.85;102121.81;5154940;27;20022;-83
2022/09/22 10:13:38;;;;;;;3.67;3.10;;;;;;;15.79;60.03;102125.75;5136583;27;20083;-84
2022/09/22 10:16:21;;;;;;;5.60;2.73;;;;;;;15.94;59.81;102131.78;5136815;27;20030;-84
2022/09/22 10:19:02;;;;;;;4.85;2.67;;;;;;;16.09;56.39;102120.50;5136726;27;20458;-84
2022/09/22 10:21:30;;;;;;;4.03;3.10;;;;;;;16.24;56.17;102116.59;5136121;27;20126;-84
2022/09/22 10:23:58;;;;;;;5.53;2.80;;;;;;;16.41;56.47;102116.88;5137992;27;20034;-85
2022/09/22 10:26:26;;;;;;;4.03;2.88;;;;;;;16.52;54.92;102118.06;5158600;27;20027;-85
2022/09/22 10:29:18;;;;;;;6.20;2.80;;;;;;;16.63;56.39;102109.09;5158534;27;20034;-85
2022/09/22 10:32:11;;;;;;;7.38;2.80;;;;;;;16.73;55.40;102108.59;5140134;27;20041;-84
2022/09/22 10:34:45;;;;;;;5.25;2.70;;;;;;;16.82;53.81;102110.81;5140519;27;20419;-86
2022/09/22 10:37:14;;;;;;;4.82;2.70;;;;;;;17.03;52.83;102102.41;5140137;27;20083;-86
2022/09/22 10:39:49;;;;;;;4.28;2.65;;;;;;;17.18;51.54;102097.38;5139942;27;20062;-85
2022/09/22 10:42:32;;;;;;;;;;;;;;;;;;;;;
2022/09/22 10:45:04;;;;;;;3.08;2.20;;;;;;;17.65;50.87;102094.03;5159185;27;20022;-86
2022/09/22 10:47:51;;;;;;;5.38;2.78;;;;;;;17.98;49.88;102088.09;5139212;27;20474;-85
2022/09/22 10:50:19;;;;;;;5.32;2.70;;;;;;;18.05;48.87;102091.56;5140247;27;20034;-85
2022/09/22 10:53:09;;;;;;;3.95;2.70;;;;;;;17.95;50.42;102098.69;5139580;27;20101;-85
2022/09/22 10:55:46;;;;;;;3.77;2.90;;;;;;;18.25;49.18;102090.41;5139829;27;20068;-85
2022/09/22 10:58:30;;;;;;;6.78;2.42;;;;;;;18.63;49.44;102088.25;5158816;27;20466;-85
2022/09/22 11:01:21;;;;;;;3.58;2.10;;;;;;;19.22;50.35;102085.44;5139596;27;20492;-86
2022/09/22 11:04:03;;;;;;;4.97;2.60;;;;;;;19.88;46.85;102085.94;5125861;27;20110;-86
2022/09/22 11:12:54;;;;;;;8.25;2.70;;;;;;;26.13;33.78;102072.13;5158628;27;20497;-84
2022/09/22 11:15:42;;;;;;;5.65;2.03;;;;;;;26.91;31.81;102073.88;5139618;27;20030;-83
2022/09/22 11:18:44;;;;;;;2.42;1.77;;;;;;;26.78;35.22;102066.22;5139949;27;20039;-83
2022/09/22 11:21:23;;;;;;;2.45;2.13;;;;;;;29.62;30.10;102067.75;5140049;27;20042;-83
2022/09/22 11:24:21;;;;;;;11.03;3.07;;;;;;;32.92;28.97;102056.59;5139183;27;20031;-83
2022/09/22 11:26:52;;;;;;;5.43;2.80;;;;;;;34.78;21.49;102056.19;5139286;27;20113;-83
2022/09/22 11:29:24;;;;;;;2.92;2.50;;;;;;;35.58;20.05;102056.63;5157467;27;20027;-83
2022/09/22 11:32:17;;;;;;;4.05;2.33;;;;;;;32.89;23.22;102054.47;5139097;27;20129;-84
2022/09/22 11:35:06;;;;;;;2.85;2.10;;;;;;;30.07;24.92;102043.44;5138908;27;20118;-83
2022/09/22 11:38:08;;;;;;;5.90;2.00;;;;;;;29.61;24.31;102040.94;5138893;27;20027;-83
2022/09/22 11:41:01;;;;;;;3.88;2.17;;;;;;;28.08;28.20;102040.97;5094106;27;20035;-83
2022/09/22 11:43:26;;;;;;;3.55;1.90;;;;;;;26.87;27.27;102036.59;5139852;27;20030;-83
2022/09/22 11:46:17;;;;;;;2.53;1.80;;;;;;;26.27;29.57;102031.41;5138525;27;20545;-84
2022/09/22 11:49:08;;;;;;;4.05;1.65;;;;;;;28.49;27.90;102024.31;5097106;27;20031;-83
2022/09/22 11:51:45;;;;;;;5.85;1.95;;;;;;;32.13;23.96;102025.22;5139421;27;20027;-84